Time;durP1;ratioP1;P1;durP2;ratioP2;P2;SDS_P1;SDS_P2;PMS_P1;PMS_P2;Temp;Humidity;BMP_temperature;BMP_pressure;BME280_temperature;BME280_humidity;BME280_pressure;Samples;Min_cycle;Max_cycle;Signal;HPM_P1;HPM_P2
2023/05/19 00:00:27;;;;;;;7.30;5.40;;;;;;;8.73;84.37;97999.34;108902;1250;104005;-74
2023/05/19 00:03:16;;;;;;;7.90;5.30;;;;;;;8.68;84.35;98002.91;108872;1250;102874;-74
2023/05/19 00:05:45;;;;;;;8.50;5.10;;;;;;;8.64;84.27;98004.12;108850;1250;99954;-74
2023/05/19 00:08:18;;;;;;;6.40;5.60;;;;;;;8.58;84.31;98009.70;108860;1250;95604;-74
2023/05/19 00:10:47;;;;;;;5.70;5.20;;;;;;;8.55;84.48;98010.62;108885;1250;95939;-74
2023/05/19 00:13:15;;;;;;;10.00;6.00;;;;;;;8.52;84.60;98010.64;108906;1250;103311;-73
2023/05/19 00:15:43;;;;;;;6.50;5.90;;;;;;;8.49;84.48;98000.82;108880;1250;101026;-74
2023/05/19 00:18:12;;;;;;;7.00;6.20;;;;;;;8.47;84.58;97994.37;108892;1250;100056;-73
2023/05/19 00:20:40;;;;;;;7.00;6.10;;;;;;;8.47;84.68;97992.91;108822;1250;95550;-76
2023/05/19 00:23:09;;;;;;;8.60;6.40;;;;;;;8.47;84.79;97992.35;108970;1250;97046;-74
2023/05/19 00:25:37;;;;;;;9.70;6.90;;;;;;;8.48;85.05;97991.70;108902;1251;102232;-75
2023/05/19 00:28:05;;;;;;;7.30;6.30;;;;;;;8.50;84.98;97994.84;108942;1250;101506;-74
2023/05/19 00:30:33;;;;;;;7.60;6.80;;;;;;;8.52;84.84;97997.39;108873;1250;99865;-77
2023/05/19 00:33:01;;;;;;;9.10;6.90;;;;;;;8.52;84.78;97998.60;108879;1250;95561;-77
2023/05/19 00:35:29;;;;;;;8.20;6.70;;;;;;;8.54;84.77;98002.73;108610;1250;95924;-74
2023/05/19 00:37:57;;;;;;;10.00;7.40;;;;;;;8.54;84.85;97997.61;108920;1251;103820;-74
2023/05/19 00:40:27;;;;;;;7.60;6.80;;;;;;;8.56;84.81;97995.04;108904;1250;101377;-74
2023/05/19 00:42:55;;;;;;;8.70;7.20;;;;;;;8.57;84.76;97993.46;108923;1250;99915;-76
2023/05/19 00:45:24;;;;;;;10.10;7.80;;;;;;;8.58;84.82;97989.20;108869;1250;95597;-74
2023/05/19 00:47:52;;;;;;;13.60;8.80;;;;;;;8.59;84.78;97987.31;108401;1250;97237;-74
2023/05/19 00:50:20;;;;;;;10.90;8.30;;;;;;;8.59;84.83;97983.21;108914;1250;103418;-75
2023/05/19 00:52:49;;;;;;;11.30;8.80;;;;;;;8.59;84.84;97979.45;108560;1251;101342;-77
2023/05/19 00:55:17;;;;;;;9.50;7.70;;;;;;;8.60;84.95;97977.65;108807;1250;100028;-74
2023/05/19 00:57:47;;;;;;;7.90;7.00;;;;;;;8.61;85.01;97977.98;108877;1250;95597;-74
2023/05/19 01:00:15;;;;;;;10.00;8.00;;;;;;;8.60;84.91;97971.92;108851;1250;96049;-74
2023/05/19 01:02:43;;;;;;;10.20;8.10;;;;;;;8.61;84.87;97968.13;108922;1250;103478;-76
2023/05/19 01:05:13;;;;;;;9.00;8.10;;;;;;;8.61;84.98;97968.13;108873;1250;101227;-74
2023/05/19 01:07:41;;;;;;;8.90;8.00;;;;;;;8.60;84.92;97964.64;108858;1250;100019;-74
2023/05/19 01:10:10;;;;;;;8.80;7.30;;;;;;;8.59;85.04;97961.27;108635;1251;95614;-75
2023/05/19 01:12:39;;;;;;;11.10;8.50;;;;;;;8.60;85.05;97962.58;108935;1250;97101;-74
2023/05/19 01:15:08;;;;;;;10.70;8.30;;;;;;;8.61;85.02;97970.04;108584;1250;103326;-74
2023/05/19 01:17:53;;;;;;;18.20;13.10;;;;;;;8.59;85.13;97973.66;108884;1250;101398;-74
2023/05/19 01:20:29;;;;;;;20.80;15.30;;;;;;;8.59;84.96;97973.12;108858;1250;99550;-74
2023/05/19 01:23:04;;;;;;;19.50;13.90;;;;;;;8.60;84.91;97970.55;108865;1250;95525;-77
2023/05/19 01:25:59;;;;;;;18.80;13.10;;;;;;;8.60;84.90;97968.70;108739;1250;95975;-73
2023/05/19 01:29:08;;;;;;;15.70;11.00;;;;;;;8.58;84.99;97972.36;108908;1250;103299;-76
2023/05/19 01:31:43;;;;;;;13.40;9.40;;;;;;;8.55;85.03;97979.44;108914;1250;101577;-76
2023/05/19 01:34:13;;;;;;;12.80;10.50;;;;;;;8.55;85.20;97979.37;108849;1250;99894;-74
2023/05/19 01:36:43;;;;;;;14.00;10.70;;;;;;;8.58;85.20;97979.22;108891;1250;95579;-76
2023/05/19 01:39:12;;;;;;;13.40;11.10;;;;;;;8.59;85.05;97979.07;108623;1250;96035;-77
2023/05/19 01:41:42;;;;;;;14.10;10.70;;;;;;;8.58;85.10;97979.30;108881;1250;103306;-74
2023/05/19 01:44:10;;;;;;;13.90;11.00;;;;;;;8.57;85.14;97976.80;108905;1250;101658;-73
2023/05/19 01:46:39;;;;;;;15.80;10.90;;;;;;;8.57;85.15;97978.40;108900;1250;99992;-74
2023/05/19 01:49:08;;;;;;;14.60;12.00;;;;;;;8.57;85.16;97977.94;108850;1250;95601;-78
2023/05/19 01:51:36;;;;;;;14.40;12.30;;;;;;;8.59;85.23;97972.29;108848;1250;96177;-74
2023/05/19 01:54:04;;;;;;;16.70;12.70;;;;;;;8.62;85.17;97974.52;108859;1253;103606;-75
2023/05/19 01:56:52;;;;;;;15.30;11.90;;;;;;;8.65;85.11;97971.68;108724;1250;101777;-76
2023/05/19 01:59:30;;;;;;;14.80;11.40;;;;;;;8.67;84.99;97971.90;108579;1251;99662;-74
2023/05/19 02:02:02;;;;;;;15.40;11.10;;;;;;;8.65;84.91;97969.02;108801;1250;95580;-74
2023/05/19 02:04:51;;;;;;;15.50;10.90;;;;;;;8.64;84.91;97967.92;108875;1250;96499;-74
2023/05/19 02:07:35;;;;;;;15.00;10.80;;;;;;;8.62;85.05;97966.66;108883;1250;103462;-74
2023/05/19 02:10:12;;;;;;;12.50;10.50;;;;;;;8.61;85.09;97967.05;108622;1249;100802;-74
2023/05/19 02:12:41;;;;;;;14.20;10.10;;;;;;;8.57;85.14;97960.96;108860;1250;99935;-74
2023/05/19 02:15:23;;;;;;;14.90;10.70;;;;;;;8.56;85.16;97960.63;108850;1250;95682;-74
2023/05/19 02:17:53;;;;;;;16.40;11.00;;;;;;;8.56;85.31;97958.98;108860;1250;96005;-77
2023/05/19 02:20:22;;;;;;;14.10;10.70;;;;;;;8.55;85.21;97961.27;108881;1250;103015;-74
2023/05/19 02:22:50;;;;;;;13.20;11.30;;;;;;;8.54;85.09;97959.73;108874;1250;100450;-74
2023/05/19 02:25:18;;;;;;;12.90;10.40;;;;;;;8.55;85.19;97958.66;108908;1250;99744;-75
2023/05/19 02:27:47;;;;;;;14.10;10.60;;;;;;;8.53;85.20;97959.50;108850;1250;95548;-77
2023/05/19 02:30:16;;;;;;;14.00;11.00;;;;;;;8.52;85.32;97960.42;108693;1251;96066;-73
2023/05/19 02:32:45;;;;;;;14.50;11.50;;;;;;;8.52;85.31;97955.41;108844;1250;103951;-76
2023/05/19 02:35:13;;;;;;;13.30;11.00;;;;;;;8.53;85.40;97953.63;108901;1249;101672;-74
2023/05/19 02:37:42;;;;;;;13.50;10.80;;;;;;;8.54;85.36;97952.94;108874;1250;100177;-77
2023/05/19 02:40:10;;;;;;;12.70;10.40;;;;;;;8.56;85.36;97954.58;108923;1250;95565;-77
2023/05/19 02:42:38;;;;;;;14.80;11.30;;;;;;;8.57;85.27;97954.42;108649;1250;96032;-74
2023/05/19 02:45:07;;;;;;;14.80;11.50;;;;;;;8.58;85.39;97955.54;108915;1250;103847;-74
2023/05/19 02:47:35;;;;;;;15.70;10.70;;;;;;;8.60;85.39;97950.30;108870;1250;101849;-78
2023/05/19 02:50:03;;;;;;;14.30;10.60;;;;;;;8.61;85.27;97950.86;108896;1250;100226;-76
2023/05/19 02:52:31;;;;;;;12.30;10.90;;;;;;;8.59;85.27;97952.38;108529;1250;95611;-74
2023/05/19 02:54:59;;;;;;;13.00;10.40;;;;;;;8.56;85.31;97953.63;108893;1250;95987;-74
2023/05/19 02:57:30;;;;;;;12.00;10.00;;;;;;;8.56;85.41;97950.56;108913;1250;103752;-79
2023/05/19 02:59:58;;;;;;;12.30;9.20;;;;;;;8.57;85.37;97953.17;108946;1250;101611;-76
2023/05/19 03:02:26;;;;;;;12.70;9.50;;;;;;;8.55;85.34;97957.70;108898;1250;100091;-77
2023/05/19 03:04:54;;;;;;;8.90;8.00;;;;;;;8.53;85.40;97953.26;108864;1250;95548;-73
2023/05/19 03:07:23;;;;;;;9.10;7.60;;;;;;;8.50;85.43;97952.91;108927;1250;96034;-77
2023/05/19 03:09:52;;;;;;;10.50;7.90;;;;;;;8.50;85.38;97960.45;108917;1250;103642;-77
2023/05/19 03:12:20;;;;;;;9.80;7.60;;;;;;;8.52;85.27;97959.11;108909;1250;101475;-76
2023/05/19 03:14:48;;;;;;;9.10;7.20;;;;;;;8.54;85.29;97959.02;108925;1250;100416;-76
2023/05/19 03:17:16;;;;;;;8.50;7.20;;;;;;;8.56;85.36;97958.18;108857;1250;95718;-75
2023/05/19 03:19:44;;;;;;;8.70;7.50;;;;;;;8.56;85.31;97958.64;108902;1250;96179;-74
2023/05/19 03:22:12;;;;;;;9.20;8.00;;;;;;;8.57;85.30;97958.89;108944;1250;103499;-76
2023/05/19 03:24:40;;;;;;;10.20;7.70;;;;;;;8.57;85.43;97956.86;108905;1250;101345;-75
2023/05/19 03:27:09;;;;;;;10.20;7.90;;;;;;;8.59;85.33;97960.40;108854;1250;100153;-75
2023/05/19 03:29:37;;;;;;;9.30;7.70;;;;;;;8.61;85.48;97963.01;108903;1250;95594;-74
2023/05/19 03:32:05;;;;;;;10.60;8.60;;;;;;;8.63;85.44;97958.89;108936;1250;96083;-74
2023/05/19 03:34:34;;;;;;;10.20;7.80;;;;;;;8.64;85.39;97956.21;108966;1250;103363;-75
2023/05/19 03:37:02;;;;;;;9.80;7.50;;;;;;;8.68;85.34;97958.34;108717;1250;101319;-75
2023/05/19 03:39:30;;;;;;;11.30;8.40;;;;;;;8.72;85.36;97958.31;108895;1250;100139;-74
2023/05/19 03:41:58;;;;;;;10.80;7.60;;;;;;;8.76;85.27;97956.55;108912;1250;95788;-73
2023/05/19 03:44:26;;;;;;;9.30;7.20;;;;;;;8.81;85.32;97955.83;108910;1250;96033;-74
2023/05/19 03:46:54;;;;;;;9.40;7.70;;;;;;;8.82;85.18;97957.05;108908;1250;103710;-75
2023/05/19 03:49:22;;;;;;;10.50;8.60;;;;;;;8.82;85.18;97956.55;108531;1253;100593;-74
2023/05/19 03:51:50;;;;;;;8.80;7.10;;;;;;;8.80;85.21;97958.19;108778;1251;98942;-76
2023/05/19 03:54:19;;;;;;;11.50;7.60;;;;;;;8.79;85.14;97954.07;108765;1255;95610;-77
2023/05/19 03:56:48;;;;;;;8.60;7.60;;;;;;;8.80;85.28;97958.60;108824;1251;96022;-74
2023/05/19 03:59:16;;;;;;;11.20;7.70;;;;;;;8.83;85.48;97956.92;108484;1252;103605;-74
2023/05/19 04:01:45;;;;;;;13.20;8.20;;;;;;;8.87;85.39;97958.84;108819;1251;101216;-72
2023/05/19 04:04:13;;;;;;;10.00;8.10;;;;;;;8.87;85.47;97956.62;108800;1252;99881;-72
2023/05/19 04:06:41;;;;;;;10.30;8.00;;;;;;;8.90;85.44;97955.08;108758;1253;95592;-72
2023/05/19 04:09:14;;;;;;;8.80;7.40;;;;;;;8.90;85.37;97954.43;108807;1252;96043;-73
2023/05/19 04:11:43;;;;;;;10.60;7.80;;;;;;;8.92;85.37;97954.98;108811;1252;103544;-72
2023/05/19 04:14:11;;;;;;;9.90;7.90;;;;;;;8.91;85.36;97959.67;108810;1253;101051;-74
2023/05/19 04:16:39;;;;;;;9.30;7.40;;;;;;;8.93;85.35;97963.33;108622;1257;99940;-72
2023/05/19 04:19:07;;;;;;;10.60;8.10;;;;;;;8.94;85.21;97963.11;108739;1253;95819;-75
2023/05/19 04:21:35;;;;;;;9.80;7.70;;;;;;;8.98;85.27;97959.03;108831;1251;96453;-74
2023/05/19 04:24:05;;;;;;;8.10;7.10;;;;;;;9.02;85.29;97962.98;108864;1251;103685;-74
2023/05/19 04:26:33;;;;;;;10.90;8.10;;;;;;;9.06;85.25;97961.79;108806;1252;100943;-72
2023/05/19 04:29:03;;;;;;;8.00;7.20;;;;;;;9.08;85.36;97957.31;108833;1251;99830;-72
2023/05/19 04:31:33;;;;;;;11.30;8.10;;;;;;;9.05;85.26;97959.13;108452;1253;95635;-73
2023/05/19 04:34:01;;;;;;;9.10;6.80;;;;;;;9.04;85.38;97960.98;108817;1251;95985;-72
2023/05/19 04:36:30;;;;;;;8.30;6.60;;;;;;;9.07;85.33;97962.25;108848;1251;103218;-73
2023/05/19 04:39:01;;;;;;;6.40;5.60;;;;;;;9.10;85.41;97958.44;108782;1253;111559;-72
2023/05/19 04:41:29;;;;;;;6.70;5.60;;;;;;;9.14;85.25;97962.14;108799;1252;99237;-74
2023/05/19 04:43:57;;;;;;;6.70;5.50;;;;;;;9.15;85.23;97957.48;108849;1251;95547;-72
2023/05/19 04:46:28;;;;;;;8.10;5.80;;;;;;;9.19;85.26;97956.16;108840;1253;97052;-72
2023/05/19 04:48:59;;;;;;;5.10;4.60;;;;;;;9.22;85.15;97960.61;108858;1250;103783;-72
2023/05/19 04:51:30;;;;;;;5.40;4.70;;;;;;;9.23;85.00;97953.58;108942;1250;101177;-73
2023/05/19 04:53:58;;;;;;;5.10;4.30;;;;;;;9.26;84.84;97956.88;108877;1250;99877;-74
2023/05/19 04:56:27;;;;;;;5.10;4.50;;;;;;;9.28;84.82;97955.02;108886;1250;95562;-76
2023/05/19 04:58:55;;;;;;;5.30;4.50;;;;;;;9.29;84.89;97954.10;108934;1250;96051;-74
2023/05/19 05:01:24;;;;;;;4.00;3.60;;;;;;;9.30;84.77;97952.16;108907;1250;103339;-72
2023/05/19 05:03:57;;;;;;;4.30;3.80;;;;;;;9.32;84.54;97953.38;108920;1250;101687;-72
2023/05/19 05:06:27;;;;;;;4.70;3.90;;;;;;;9.32;84.52;97952.85;108903;1250;99834;-73
2023/05/19 05:08:55;;;;;;;5.00;4.00;;;;;;;9.34;84.40;97954.45;108550;1249;95620;-75
2023/05/19 05:11:24;;;;;;;5.00;3.90;;;;;;;9.35;84.49;97956.41;108550;1250;96492;-74
2023/05/19 05:13:52;;;;;;;5.10;4.00;;;;;;;9.37;84.46;97958.18;108928;1250;103272;-76
2023/05/19 05:16:21;;;;;;;4.60;3.70;;;;;;;9.40;84.48;97960.00;108628;1250;102089;-72
2023/05/19 05:18:49;;;;;;;5.50;4.20;;;;;;;9.43;84.46;97960.01;108608;1250;99902;-72
2023/05/19 05:21:17;;;;;;;5.10;4.50;;;;;;;9.44;84.30;97957.29;108542;1254;96241;-72
2023/05/19 05:23:46;;;;;;;5.60;4.60;;;;;;;9.46;84.34;97957.67;108593;1254;96126;-72
2023/05/19 05:26:18;;;;;;;6.10;5.00;;;;;;;9.48;84.16;97962.09;108559;1254;103267;-73
2023/05/19 05:28:46;;;;;;;;;;;;;;;9.49;84.22;97965.64;108646;1254;101464;-74
2023/05/19 05:31:14;;;;;;;4.90;4.40;;;;;;;9.48;84.18;97971.35;108558;1254;100225;-73
2023/05/19 05:33:43;;;;;;;6.00;5.10;;;;;;;9.49;84.27;97967.30;108583;1254;95649;-72
2023/05/19 05:36:12;;;;;;;5.40;4.70;;;;;;;9.52;84.31;97972.48;108621;1254;96067;-72
2023/05/19 05:38:40;;;;;;;6.90;4.30;;;;;;;9.56;84.45;97974.27;108605;1253;103624;-74
2023/05/19 05:41:08;;;;;;;5.10;4.20;;;;;;;9.57;84.11;97972.60;108637;1254;101519;-75
2023/05/19 05:43:36;;;;;;;4.20;3.80;;;;;;;9.56;84.08;97975.73;108289;1254;99320;-73
2023/05/19 05:46:04;;;;;;;5.00;4.00;;;;;;;9.55;84.07;97976.92;108619;1254;95595;-74
2023/05/19 05:48:33;;;;;;;5.30;4.20;;;;;;;9.58;84.06;97976.19;108356;1254;96679;-72
2023/05/19 05:51:02;;;;;;;4.70;4.10;;;;;;;9.61;84.03;97974.56;108616;1254;103621;-72
2023/05/19 05:53:32;;;;;;;8.00;5.30;;;;;;;9.63;83.93;97973.69;108619;1250;101279;-72
2023/05/19 05:56:00;;;;;;;6.20;5.10;;;;;;;9.67;84.01;97978.10;108879;1250;99771;-73
2023/05/19 05:58:28;;;;;;;4.80;4.30;;;;;;;9.71;83.90;97979.48;108847;1250;95538;-72
2023/05/19 06:00:58;;;;;;;5.40;4.30;;;;;;;9.75;83.90;97977.79;108930;1250;96420;-72
2023/05/19 06:03:26;;;;;;;6.30;4.40;;;;;;;9.79;83.88;97984.32;108927;1250;103529;-75
2023/05/19 06:05:54;;;;;;;5.10;4.30;;;;;;;9.84;83.83;97983.95;108917;1250;101720;-74
2023/05/19 06:08:22;;;;;;;5.40;4.60;;;;;;;9.87;83.79;97986.40;108851;1250;99646;-72
2023/05/19 06:10:51;;;;;;;5.50;4.20;;;;;;;9.90;83.53;97985.09;108893;1250;95807;-72
2023/05/19 06:13:22;;;;;;;4.30;3.80;;;;;;;9.92;83.38;97985.06;108911;1250;96096;-72
2023/05/19 06:15:51;;;;;;;5.50;4.20;;;;;;;9.93;83.12;97985.81;108878;1250;103499;-72
2023/05/19 06:18:19;;;;;;;4.80;4.10;;;;;;;9.94;82.97;97986.17;108908;1250;101336;-76
2023/05/19 06:20:47;;;;;;;4.80;4.40;;;;;;;9.95;83.15;97985.73;108851;1250;99962;-72
2023/05/19 06:23:15;;;;;;;6.10;4.60;;;;;;;9.98;83.43;97981.98;108888;1250;95611;-73
2023/05/19 06:25:43;;;;;;;6.10;4.70;;;;;;;10.01;83.40;97983.83;108935;1250;96016;-76
2023/05/19 06:28:11;;;;;;;5.10;4.60;;;;;;;10.06;83.45;97985.77;108895;1250;103416;-73
2023/05/19 06:30:40;;;;;;;6.40;4.20;;;;;;;10.10;83.24;97989.42;108891;1250;101063;-73
2023/05/19 06:33:08;;;;;;;6.40;4.60;;;;;;;10.13;83.27;97988.35;108864;1253;100004;-73
2023/05/19 06:35:36;;;;;;;6.50;4.40;;;;;;;10.16;83.28;97992.38;108912;1250;95543;-76
2023/05/19 06:38:04;;;;;;;5.20;4.10;;;;;;;10.19;83.23;97996.66;108933;1250;95991;-74
2023/05/19 06:40:32;;;;;;;4.50;4.10;;;;;;;10.23;83.35;97995.92;108888;1250;103434;-73
2023/05/19 06:43:00;;;;;;;6.00;4.30;;;;;;;10.25;83.25;97997.90;108919;1250;101094;-78
2023/05/19 06:45:28;;;;;;;5.50;4.50;;;;;;;10.29;83.16;98000.33;108878;1250;99883;-73
2023/05/19 06:47:57;;;;;;;6.10;5.30;;;;;;;10.30;82.96;97998.48;108909;1250;95591;-73
2023/05/19 06:50:25;;;;;;;5.80;4.90;;;;;;;10.33;83.05;97998.50;108789;1250;96114;-73
2023/05/19 06:52:56;;;;;;;6.40;4.30;;;;;;;10.35;83.15;97998.40;108923;1250;103500;-77
2023/05/19 06:55:24;;;;;;;5.10;4.60;;;;;;;10.36;83.07;98000.11;108925;1250;101016;-74
2023/05/19 06:57:52;;;;;;;6.50;4.70;;;;;;;10.36;83.05;97998.49;108916;1250;99336;-73
2023/05/19 07:00:20;;;;;;;5.70;5.20;;;;;;;10.40;82.91;98000.70;108904;1250;95541;-75
2023/05/19 07:02:48;;;;;;;5.50;5.00;;;;;;;10.44;82.65;98000.16;108902;1250;96527;-73
2023/05/19 07:05:17;;;;;;;5.20;4.70;;;;;;;10.50;82.56;98001.40;108652;1250;102750;-73
2023/05/19 07:07:45;;;;;;;5.80;4.70;;;;;;;10.57;82.49;98003.79;108931;1250;101331;-75
2023/05/19 07:10:13;;;;;;;6.10;5.50;;;;;;;10.61;82.29;98007.15;108894;1250;99913;-73
2023/05/19 07:12:41;;;;;;;5.30;4.80;;;;;;;10.66;82.39;98003.10;108922;1250;95612;-75
2023/05/19 07:15:10;;;;;;;5.80;4.60;;;;;;;10.73;82.31;98003.29;108952;1250;96421;-73
2023/05/19 07:17:38;;;;;;;5.20;4.70;;;;;;;10.78;82.09;98000.10;108683;1250;103123;-72
2023/05/19 07:20:09;;;;;;;5.10;4.60;;;;;;;10.83;81.91;98000.02;108936;1254;101170;-76
2023/05/19 07:22:38;;;;;;;4.60;4.20;;;;;;;10.88;81.67;97999.50;108907;1250;100050;-73
2023/05/19 07:25:10;;;;;;;5.00;4.40;;;;;;;10.92;81.28;98000.64;108815;1250;95578;-74
2023/05/19 07:27:38;;;;;;;5.00;4.50;;;;;;;10.95;81.41;97997.89;108972;1250;95636;-72
2023/05/19 07:30:06;;;;;;;5.40;4.50;;;;;;;10.98;81.23;97993.71;108902;1250;103655;-72
2023/05/19 07:32:35;;;;;;;7.60;5.10;;;;;;;11.00;81.08;97989.21;108783;1250;100353;-72
2023/05/19 07:35:03;;;;;;;6.50;5.10;;;;;;;11.03;81.12;97990.73;108922;1250;99016;-73
2023/05/19 07:37:31;;;;;;;5.50;4.50;;;;;;;11.05;80.94;97994.24;108955;1250;95588;-73
2023/05/19 07:39:59;;;;;;;11.10;5.90;;;;;;;11.07;80.77;97995.63;108912;1250;96019;-72
2023/05/19 07:42:27;;;;;;;9.00;6.60;;;;;;;11.08;80.66;97991.98;108948;1250;103532;-73
2023/05/19 07:44:56;;;;;;;17.10;12.60;;;;;;;11.06;80.71;97994.25;108912;1250;101276;-73
2023/05/19 07:47:24;;;;;;;9.60;8.00;;;;;;;11.04;80.64;97996.98;108878;1250;99899;-73
2023/05/19 07:49:52;;;;;;;7.90;6.90;;;;;;;11.05;80.71;97992.33;108895;1250;95762;-77
2023/05/19 07:52:20;;;;;;;7.70;6.40;;;;;;;11.08;80.60;97995.26;108893;1254;95978;-74
2023/05/19 07:54:48;;;;;;;6.80;6.00;;;;;;;11.11;80.50;97994.06;108934;1250;111907;-73
2023/05/19 07:57:17;;;;;;;7.40;5.80;;;;;;;11.15;80.59;97994.78;108653;1250;101448;-73
2023/05/19 07:59:45;;;;;;;6.40;5.80;;;;;;;11.18;80.55;97995.38;108890;1250;98760;-72
2023/05/19 08:02:14;;;;;;;8.40;6.20;;;;;;;11.22;80.59;97995.30;108625;1250;96047;-73
2023/05/19 08:04:42;;;;;;;6.30;5.30;;;;;;;11.25;80.62;97995.79;108954;1250;96021;-72
2023/05/19 08:07:10;;;;;;;6.70;5.50;;;;;;;11.24;80.36;97995.40;108571;1250;103524;-72
2023/05/19 08:09:38;;;;;;;6.30;5.30;;;;;;;11.18;80.54;97997.80;108928;1250;109818;-72
2023/05/19 08:12:06;;;;;;;6.10;5.10;;;;;;;11.19;80.66;97996.14;108891;1251;109537;-75
2023/05/19 08:14:35;;;;;;;6.20;5.60;;;;;;;11.21;80.32;97993.91;108874;1251;95725;-75
2023/05/19 08:17:03;;;;;;;6.70;6.00;;;;;;;11.23;80.22;97995.20;108936;1250;95992;-74
2023/05/19 08:19:32;;;;;;;14.70;9.60;;;;;;;11.23;80.19;97993.98;108898;1251;103503;-74
2023/05/19 08:22:00;;;;;;;12.30;9.10;;;;;;;11.23;80.23;97996.54;108897;1250;100183;-73
2023/05/19 08:24:29;;;;;;;10.40;8.00;;;;;;;11.25;80.28;97994.33;108912;1250;99838;-74
2023/05/19 08:26:57;;;;;;;14.70;9.60;;;;;;;11.27;79.99;97992.92;108884;1250;95857;-74
2023/05/19 08:29:25;;;;;;;17.30;11.20;;;;;;;11.30;80.06;97998.89;108945;1251;95996;-74
2023/05/19 08:31:54;;;;;;;23.80;16.50;;;;;;;11.34;80.10;97996.88;108616;1251;103527;-76
2023/05/19 08:34:22;;;;;;;15.90;13.10;;;;;;;11.38;80.12;97995.34;108917;1250;101594;-73
2023/05/19 08:36:51;;;;;;;10.60;8.70;;;;;;;11.37;80.21;97999.73;108845;1251;99155;-77
2023/05/19 08:39:23;;;;;;;8.20;6.90;;;;;;;11.41;80.19;98001.19;108608;1250;96517;-74
2023/05/19 08:41:51;;;;;;;6.80;5.90;;;;;;;11.46;80.06;97997.51;108922;1251;95785;-73
2023/05/19 08:44:19;;;;;;;8.00;6.90;;;;;;;11.52;80.08;97993.40;108937;1250;102145;-74
2023/05/19 08:46:48;;;;;;;7.30;6.50;;;;;;;11.56;80.08;97998.25;108892;1251;101670;-78
2023/05/19 08:49:22;;;;;;;7.10;6.30;;;;;;;11.61;80.16;97997.45;108884;1251;100175;-77
2023/05/19 08:52:00;;;;;;;6.70;6.00;;;;;;;11.66;79.90;97996.56;108862;1251;95543;-75
2023/05/19 08:54:38;;;;;;;7.40;6.60;;;;;;;11.70;79.92;97997.66;108895;1250;96043;-74
2023/05/19 08:57:11;;;;;;;7.40;5.80;;;;;;;11.76;79.81;97998.32;108933;1251;102537;-74
2023/05/19 08:59:39;;;;;;;7.30;5.80;;;;;;;11.82;79.67;97996.89;108890;1251;100103;-73
2023/05/19 09:02:11;;;;;;;7.00;6.20;;;;;;;11.87;79.51;97997.27;108688;1250;232592;-78
2023/05/19 09:04:44;;;;;;;7.60;6.00;;;;;;;11.89;79.43;97997.95;108910;1251;95557;-78
2023/05/19 09:07:16;;;;;;;7.60;6.40;;;;;;;11.94;79.47;97999.16;108906;1250;95988;-77
2023/05/19 09:09:44;;;;;;;7.10;6.00;;;;;;;12.01;79.51;97992.75;108628;1250;103399;-77
2023/05/19 09:12:13;;;;;;;6.50;5.70;;;;;;;12.08;79.45;97988.02;108914;1251;101013;-76
2023/05/19 09:14:42;;;;;;;9.00;6.50;;;;;;;12.13;79.48;97986.65;108627;1251;100314;-74
2023/05/19 09:17:10;;;;;;;8.40;6.00;;;;;;;12.13;79.24;97987.77;108881;1250;95542;-74
2023/05/19 09:19:44;;;;;;;6.00;5.40;;;;;;;12.15;79.03;97985.66;108873;1251;95996;-78
2023/05/19 09:22:12;;;;;;;7.60;5.90;;;;;;;12.15;79.00;97985.23;108903;1251;103581;-75
2023/05/19 09:24:41;;;;;;;10.80;7.20;;;;;;;12.21;79.02;97988.27;108898;1250;101491;-74
2023/05/19 09:27:09;;;;;;;11.60;7.70;;;;;;;12.28;78.91;97989.33;108885;1251;100110;-76
2023/05/19 09:29:37;;;;;;;19.80;8.30;;;;;;;12.32;78.59;97991.77;108891;1254;95582;-74
2023/05/19 09:32:06;;;;;;;18.40;8.50;;;;;;;12.36;78.64;97990.90;108623;1257;96588;-75
2023/05/19 09:34:34;;;;;;;17.20;8.60;;;;;;;12.41;78.50;97990.79;108908;1250;103567;-74
2023/05/19 09:37:03;;;;;;;12.60;7.60;;;;;;;12.45;78.47;97989.44;108923;1250;101405;-76
2023/05/19 09:39:31;;;;;;;9.00;6.60;;;;;;;12.48;78.62;97990.73;108646;1250;100341;-74
2023/05/19 09:42:04;;;;;;;10.40;7.40;;;;;;;12.50;78.74;97991.61;108835;1250;95529;-78
2023/05/19 09:44:35;;;;;;;11.40;7.10;;;;;;;12.51;78.59;97992.06;108897;1251;96027;-77
2023/05/19 09:47:03;;;;;;;8.00;6.20;;;;;;;12.55;78.32;97991.14;108857;1251;103436;-74
2023/05/19 09:49:32;;;;;;;7.80;6.10;;;;;;;12.60;78.13;97987.64;108909;1250;101308;-74
2023/05/19 09:52:03;;;;;;;6.90;6.20;;;;;;;12.62;77.93;97989.64;108891;1250;99951;-74
2023/05/19 09:54:34;;;;;;;7.50;5.90;;;;;;;12.65;77.85;97992.15;108857;1251;95611;-75
2023/05/19 09:57:05;;;;;;;8.00;5.90;;;;;;;12.68;77.80;97990.83;108909;1251;96125;-75
2023/05/19 09:59:35;;;;;;;10.40;6.30;;;;;;;12.69;77.59;97990.05;108904;1251;103806;-74
2023/05/19 10:02:03;;;;;;;8.40;7.40;;;;;;;12.70;77.89;97986.63;108874;1251;101366;-75
2023/05/19 10:04:31;;;;;;;7.10;5.30;;;;;;;12.71;78.08;97987.88;108641;1250;99925;-75
2023/05/19 10:07:04;;;;;;;5.80;5.10;;;;;;;12.70;78.37;97988.20;108848;1254;95857;-78
2023/05/19 10:09:32;;;;;;;;;;;;;;;12.69;78.24;97987.38;108896;1251;95694;-76
2023/05/19 10:12:02;;;;;;;6.60;5.70;;;;;;;12.64;78.24;97986.48;108909;1251;103688;-77
2023/05/19 10:14:30;;;;;;;7.80;6.40;;;;;;;12.68;78.45;97987.63;108925;1250;101248;-74
2023/05/19 10:17:00;;;;;;;8.00;6.10;;;;;;;12.72;78.42;97988.66;108869;1251;99935;-74
2023/05/19 10:19:29;;;;;;;7.30;5.80;;;;;;;12.73;78.15;97987.04;108577;1250;95562;-77
2023/05/19 10:21:57;;;;;;;7.40;6.10;;;;;;;12.78;78.31;97984.59;108893;1251;95990;-74
2023/05/19 10:24:26;;;;;;;8.00;6.30;;;;;;;12.85;78.22;97984.55;108901;1251;103518;-74
2023/05/19 10:27:08;;;;;;;7.40;5.70;;;;;;;12.91;78.22;97985.80;108879;1251;101479;-74
2023/05/19 10:29:41;;;;;;;6.40;5.80;;;;;;;12.94;77.91;97988.45;108841;1250;99971;-74
2023/05/19 10:32:19;;;;;;;7.50;6.00;;;;;;;12.98;77.77;97987.20;108834;1250;95571;-75
2023/05/19 10:35:20;;;;;;;7.30;5.80;;;;;;;13.05;78.08;97985.54;108875;1251;95975;-74
2023/05/19 10:38:12;;;;;;;7.80;5.80;;;;;;;13.09;77.68;97985.66;108344;1257;103517;-76
2023/05/19 10:40:45;;;;;;;;;;;;;;;13.13;77.47;97982.77;108300;1257;101311;-74
2023/05/19 10:43:49;;;;;;;7.70;6.70;;;;;;;13.17;77.58;97984.41;108288;1257;99913;-74
2023/05/19 10:46:17;;;;;;;8.60;5.90;;;;;;;13.22;77.45;97986.45;108128;1257;97171;-75
2023/05/19 10:48:46;;;;;;;8.90;6.40;;;;;;;13.24;77.22;97990.58;108316;1257;96550;-75
2023/05/19 10:51:15;;;;;;;8.70;7.00;;;;;;;13.25;77.05;97985.57;108294;1257;103860;-74
2023/05/19 10:53:46;;;;;;;8.80;6.80;;;;;;;13.27;76.92;97988.52;108320;1257;101497;-75
2023/05/19 10:56:35;;;;;;;10.60;7.30;;;;;;;13.29;76.91;97985.08;108299;1257;98943;-77
2023/05/19 10:59:04;;;;;;;8.50;6.80;;;;;;;13.31;76.95;97982.73;108161;1257;95710;-76
2023/05/19 11:01:37;;;;;;;7.90;6.80;;;;;;;13.36;77.28;97984.52;108341;1257;96199;-75
2023/05/19 11:04:09;;;;;;;9.20;7.00;;;;;;;13.42;77.39;97983.02;108318;1257;103478;-78
2023/05/19 11:06:39;;;;;;;8.00;7.00;;;;;;;13.47;77.14;97981.05;108352;1257;100322;-74
2023/05/19 11:09:18;;;;;;;9.10;6.70;;;;;;;13.51;76.77;97979.57;108195;1257;98946;-74
2023/05/19 11:11:52;;;;;;;7.90;6.60;;;;;;;13.57;77.00;97977.66;108215;1257;95696;-77
2023/05/19 11:14:23;;;;;;;10.30;6.80;;;;;;;13.63;76.77;97980.00;108373;1257;96087;-74
2023/05/19 11:16:53;;;;;;;7.30;6.50;;;;;;;13.67;76.48;97979.48;108864;1250;103523;-74
2023/05/19 11:19:30;;;;;;;7.60;6.60;;;;;;;13.72;76.30;97983.18;108674;1250;101466;-75
2023/05/19 11:22:08;;;;;;;10.10;6.80;;;;;;;13.75;76.14;97983.04;108325;1251;97834;-75
2023/05/19 11:24:44;;;;;;;7.60;6.80;;;;;;;13.80;76.30;97982.08;108847;1251;95528;-75
2023/05/19 11:27:26;;;;;;;8.80;6.90;;;;;;;13.87;76.55;97984.92;108896;1251;96495;-75
2023/05/19 11:29:57;;;;;;;8.30;7.30;;;;;;;13.95;76.73;97980.41;108925;1251;103700;-77
2023/05/19 11:32:32;;;;;;;9.00;6.90;;;;;;;14.00;76.46;97980.16;108891;1250;100028;-73
2023/05/19 11:35:00;;;;;;;10.60;7.40;;;;;;;14.06;76.47;97985.14;108801;1250;99625;-73